createdAt,value
2018-09-16T00:00:38.192Z,2.50
2018-09-16T00:03:06.572Z,2.13
2018-09-16T00:05:34.854Z,2.40
2018-09-16T00:08:03.712Z,2.50
2018-09-16T00:10:32.036Z,2.27
2018-09-16T00:13:00.346Z,2.43
2018-09-16T00:15:28.618Z,2.77
2018-09-16T00:17:56.890Z,2.60
2018-09-16T00:20:25.132Z,2.50
2018-09-16T00:22:53.414Z,2.10
2018-09-16T00:25:21.680Z,2.53
2018-09-16T00:27:50.102Z,2.23
2018-09-16T00:30:18.356Z,4.10
2018-09-16T00:32:47.012Z,2.33
2018-09-16T00:35:16.462Z,2.27
2018-09-16T00:37:44.856Z,2.50
2018-09-16T00:40:13.127Z,2.63
2018-09-16T00:42:41.403Z,2.40
2018-09-16T00:45:10.376Z,2.20
2018-09-16T00:47:39.052Z,2.50
2018-09-16T00:50:07.624Z,2.53
2018-09-16T00:52:36.466Z,2.57
2018-09-16T00:55:04.744Z,2.50
2018-09-16T00:57:33.016Z,3.60
2018-09-16T01:00:01.281Z,2.50
2018-09-16T01:02:29.566Z,2.43
2018-09-16T01:04:57.837Z,2.40
2018-09-16T01:07:26.135Z,2.63
2018-09-16T01:09:54.394Z,2.33
2018-09-16T01:12:22.675Z,2.37
2018-09-16T01:14:50.938Z,2.53
2018-09-16T01:17:19.203Z,2.10
2018-09-16T01:19:48.220Z,2.20
2018-09-16T01:22:16.500Z,2.40
2018-09-16T01:24:45.566Z,2.73
2018-09-16T01:27:13.820Z,2.53
2018-09-16T01:29:42.100Z,2.47
2018-09-16T01:32:10.390Z,2.27
2018-09-16T01:34:38.657Z,2.40
2018-09-16T01:37:12.301Z,2.30
2018-09-16T01:39:40.580Z,2.80
2018-09-16T01:42:08.913Z,2.40
2018-09-16T01:44:37.156Z,2.40
2018-09-16T01:47:05.444Z,2.50
2018-09-16T01:49:33.732Z,2.23
2018-09-16T01:52:01.999Z,2.27
2018-09-16T01:54:30.279Z,2.47
2018-09-16T01:56:58.568Z,2.50
2018-09-16T01:59:26.826Z,2.77
2018-09-16T02:01:55.108Z,2.63
2018-09-16T02:04:23.370Z,2.70
2018-09-16T02:06:51.946Z,3.70
2018-09-16T02:09:20.220Z,2.40
2018-09-16T02:11:48.496Z,2.60
2018-09-16T02:14:16.763Z,2.73
2018-09-16T02:16:45.033Z,2.30
2018-09-16T02:19:13.302Z,2.10
2018-09-16T02:21:41.578Z,1.90
2018-09-16T02:24:09.850Z,2.23
2018-09-16T02:26:38.122Z,2.37
2018-09-16T02:29:06.376Z,2.37
2018-09-16T02:31:34.654Z,2.70
2018-09-16T02:34:02.911Z,2.63
2018-09-16T02:36:31.228Z,1.97
2018-09-16T02:38:59.486Z,2.20
2018-09-16T02:41:27.733Z,2.23
2018-09-16T02:43:56.010Z,2.30
2018-09-16T02:46:24.276Z,1.90
2018-09-16T02:48:52.580Z,2.50
2018-09-16T02:51:20.863Z,2.27
2018-09-16T02:53:49.138Z,2.17
2018-09-16T02:56:17.397Z,2.40
2018-09-16T02:58:45.704Z,2.50
2018-09-16T03:01:13.989Z,2.30
2018-09-16T03:03:42.263Z,2.17
2018-09-16T03:06:10.554Z,2.40
2018-09-16T03:08:38.810Z,2.27
2018-09-16T03:11:07.086Z,2.20
2018-09-16T03:13:35.345Z,2.10
2018-09-16T03:16:03.629Z,2.03
2018-09-16T03:18:31.895Z,2.47
2018-09-16T03:21:00.141Z,2.20
2018-09-16T03:23:29.096Z,2.17
2018-09-16T03:25:57.361Z,2.37
2018-09-16T03:28:25.643Z,1.97
2018-09-16T03:30:53.907Z,2.17
2018-09-16T03:33:22.183Z,1.90
2018-09-16T03:35:50.452Z,1.93
2018-09-16T03:38:18.729Z,2.03
2018-09-16T03:40:46.983Z,2.30
2018-09-16T03:43:15.247Z,2.00
2018-09-16T03:45:43.541Z,1.90
2018-09-16T03:48:11.797Z,2.20
2018-09-16T03:50:40.086Z,2.30
2018-09-16T03:53:08.712Z,2.50
2018-09-16T03:55:37.016Z,2.10
2018-09-16T03:58:05.297Z,2.73
2018-09-16T04:00:33.603Z,2.13
2018-09-16T04:03:01.888Z,2.33
2018-09-16T04:05:30.147Z,2.03
2018-09-16T04:07:58.415Z,2.03
2018-09-16T04:10:26.702Z,2.10
2018-09-16T04:12:54.989Z,2.23
2018-09-16T04:15:23.249Z,2.33
2018-09-16T04:17:51.535Z,2.30
2018-09-16T04:20:19.819Z,2.67
2018-09-16T04:22:48.083Z,2.10
2018-09-16T04:25:16.354Z,2.03
2018-09-16T04:27:44.613Z,2.10
2018-09-16T04:30:12.885Z,2.00
2018-09-16T04:32:41.179Z,2.27
2018-09-16T04:35:10.169Z,1.80
2018-09-16T04:37:39.503Z,2.10
2018-09-16T04:40:07.926Z,2.03
2018-09-16T04:42:36.208Z,2.10
2018-09-16T04:45:04.482Z,1.87
2018-09-16T04:47:32.770Z,2.20
2018-09-16T04:50:01.086Z,1.93
2018-09-16T04:52:29.317Z,1.93
2018-09-16T04:54:57.570Z,2.07
2018-09-16T04:57:25.845Z,2.43
2018-09-16T04:59:54.112Z,2.33
2018-09-16T05:02:22.397Z,2.00
2018-09-16T05:04:50.673Z,2.03
2018-09-16T05:07:18.944Z,1.90
2018-09-16T05:09:47.255Z,1.77
2018-09-16T05:12:15.537Z,1.83
2018-09-16T05:14:43.810Z,2.07
2018-09-16T05:17:12.075Z,1.83
2018-09-16T05:19:40.361Z,1.83
2018-09-16T05:22:08.617Z,1.93
2018-09-16T05:24:36.893Z,1.90
2018-09-16T05:27:05.179Z,2.00
2018-09-16T05:29:33.431Z,1.83
2018-09-16T05:32:01.691Z,1.90
2018-09-16T05:34:29.949Z,1.93
2018-09-16T05:36:58.203Z,2.70
2018-09-16T05:39:26.469Z,1.90
2018-09-16T05:41:54.723Z,2.10
2018-09-16T05:44:23.015Z,2.30
2018-09-16T05:46:51.374Z,3.90
2018-09-16T05:49:19.669Z,2.03
2018-09-16T05:51:48.036Z,2.00
2018-09-16T05:54:16.303Z,2.40
2018-09-16T05:56:44.582Z,2.00
2018-09-16T05:59:12.936Z,1.80
2018-09-16T06:01:41.157Z,1.80
2018-09-16T06:04:09.802Z,2.00
2018-09-16T06:06:38.105Z,2.30
2018-09-16T06:09:09.152Z,2.20
2018-09-16T06:11:37.476Z,2.07
2018-09-16T06:14:05.754Z,2.00
2018-09-16T06:16:34.017Z,1.80
2018-09-16T06:19:02.303Z,2.20
2018-09-16T06:21:30.571Z,2.10
2018-09-16T06:23:58.855Z,1.53
2018-09-16T06:26:27.141Z,2.17
2018-09-16T06:28:55.408Z,1.90
2018-09-16T06:31:23.675Z,2.20
2018-09-16T06:33:51.948Z,2.63
2018-09-16T06:36:20.240Z,1.90
2018-09-16T06:38:48.500Z,2.30
2018-09-16T06:41:17.176Z,2.27
2018-09-16T06:43:45.383Z,2.10
2018-09-16T06:46:13.647Z,2.10
2018-09-16T06:48:43.018Z,1.87
2018-09-16T06:51:11.305Z,1.70
2018-09-16T06:53:39.608Z,2.57
2018-09-16T06:56:07.883Z,1.50
2018-09-16T06:58:36.223Z,1.90
2018-09-16T07:01:04.487Z,1.80
2018-09-16T07:03:32.863Z,1.80
2018-09-16T07:06:01.149Z,1.93
2018-09-16T07:08:29.505Z,1.77
2018-09-16T07:10:57.787Z,1.87
2018-09-16T07:13:26.052Z,1.63
2018-09-16T07:15:54.348Z,1.73
2018-09-16T07:18:22.636Z,1.90
2018-09-16T07:20:50.948Z,1.67
2018-09-16T07:23:19.224Z,1.70
2018-09-16T07:25:47.514Z,2.13
2018-09-16T07:28:15.781Z,2.10
2018-09-16T07:30:44.078Z,2.10
2018-09-16T07:33:12.395Z,1.90
2018-09-16T07:35:40.696Z,2.57
2018-09-16T07:38:09.486Z,1.97
2018-09-16T07:40:38.653Z,1.70
2018-09-16T07:43:06.937Z,1.73
2018-09-16T07:45:35.217Z,1.90
2018-09-16T07:48:03.481Z,1.90
2018-09-16T07:50:31.766Z,2.10
2018-09-16T07:53:00.150Z,2.00
2018-09-16T07:55:28.394Z,2.20
2018-09-16T07:57:56.691Z,1.90
2018-09-16T08:00:24.973Z,2.80
2018-09-16T08:02:53.250Z,1.60
2018-09-16T08:05:21.516Z,1.67
2018-09-16T08:07:49.859Z,1.80
2018-09-16T08:10:18.142Z,2.07
2018-09-16T08:12:46.437Z,1.90
2018-09-16T08:15:14.783Z,1.87
2018-09-16T08:17:43.329Z,2.70
2018-09-16T08:20:12.799Z,1.87
2018-09-16T08:22:41.106Z,1.80
2018-09-16T08:25:09.420Z,1.80
2018-09-16T08:27:37.703Z,2.10
2018-09-16T08:30:06.300Z,1.70
2018-09-16T08:32:34.576Z,1.50
2018-09-16T08:35:02.859Z,2.17
2018-09-16T08:37:31.142Z,3.33
2018-09-16T08:39:59.461Z,1.87
2018-09-16T08:42:27.763Z,1.80
2018-09-16T08:44:56.029Z,1.80
2018-09-16T08:47:24.325Z,1.50
2018-09-16T08:49:52.612Z,3.60
2018-09-16T08:52:20.967Z,1.90
2018-09-16T08:54:49.202Z,1.90
2018-09-16T08:57:18.453Z,1.87
2018-09-16T08:59:46.741Z,1.80
2018-09-16T09:02:15.035Z,2.20
2018-09-16T09:04:43.397Z,2.27
2018-09-16T09:07:11.709Z,1.73
2018-09-16T09:09:39.973Z,1.80
2018-09-16T09:12:08.265Z,1.73
2018-09-16T09:14:36.541Z,2.43
2018-09-16T09:17:04.838Z,2.00
2018-09-16T09:19:33.138Z,1.60
2018-09-16T09:22:01.417Z,1.67
2018-09-16T09:24:29.733Z,1.93
2018-09-16T09:26:58.017Z,1.90
2018-09-16T09:29:26.309Z,1.80
2018-09-16T09:31:54.627Z,1.93
2018-09-16T09:34:22.921Z,2.07
2018-09-16T09:36:51.207Z,1.67
2018-09-16T09:39:19.522Z,1.63
2018-09-16T09:41:47.824Z,1.80
2018-09-16T09:44:16.140Z,3.40
2018-09-16T09:46:44.451Z,2.30
2018-09-16T09:49:13.010Z,1.93
2018-09-16T09:51:41.265Z,2.87
2018-09-16T09:54:09.574Z,2.00
2018-09-16T09:56:38.096Z,1.90
2018-09-16T09:59:06.497Z,1.87
2018-09-16T10:01:34.703Z,1.90
2018-09-16T10:04:02.969Z,2.37
2018-09-16T10:06:31.260Z,2.37
2018-09-16T10:08:59.548Z,2.47
2018-09-16T10:11:27.836Z,1.90
2018-09-16T10:13:56.129Z,1.93
2018-09-16T10:16:24.413Z,2.00
2018-09-16T10:18:52.827Z,2.20
2018-09-16T10:21:21.113Z,1.93
2018-09-16T10:23:49.405Z,2.03
2018-09-16T10:26:17.704Z,2.17
2018-09-16T10:28:46.011Z,2.00
2018-09-16T10:31:14.284Z,1.77
2018-09-16T10:33:42.583Z,1.53
2018-09-16T10:36:10.849Z,2.03
2018-09-16T10:38:39.219Z,2.37
2018-09-16T10:41:07.477Z,2.20
2018-09-16T10:43:36.209Z,2.30
2018-09-16T10:46:04.494Z,4.17
2018-09-16T10:48:32.777Z,2.30
2018-09-16T10:51:01.059Z,2.13
2018-09-16T10:53:29.373Z,1.93
2018-09-16T10:55:57.701Z,2.07
2018-09-16T10:58:25.984Z,2.07
2018-09-16T11:00:54.256Z,2.23
2018-09-16T11:03:22.557Z,1.83
2018-09-16T11:05:50.865Z,2.00
2018-09-16T11:08:19.148Z,2.00
2018-09-16T11:10:47.598Z,2.17
2018-09-16T11:13:15.936Z,2.40
2018-09-16T11:15:44.760Z,3.80
2018-09-16T11:18:13.069Z,2.33
2018-09-16T11:20:41.346Z,2.10
2018-09-16T11:23:09.639Z,2.63
2018-09-16T11:25:37.936Z,3.37
2018-09-16T11:28:06.387Z,2.97
2018-09-16T11:30:34.703Z,3.00
2018-09-16T11:33:03.001Z,2.83
2018-09-16T11:35:31.432Z,2.57
2018-09-16T11:37:59.666Z,2.40
2018-09-16T11:40:27.965Z,2.50
2018-09-16T11:42:56.233Z,2.60
2018-09-16T11:45:24.546Z,2.87
2018-09-16T11:47:52.855Z,2.80
2018-09-16T11:50:21.141Z,2.40
2018-09-16T11:52:49.453Z,2.57
2018-09-16T11:55:17.787Z,2.20
2018-09-16T11:57:46.189Z,2.40
2018-09-16T12:00:14.493Z,2.30
2018-09-16T12:02:42.809Z,2.50
2018-09-16T12:05:11.167Z,2.40
2018-09-16T12:07:39.411Z,2.27
2018-09-16T12:10:07.757Z,2.37
2018-09-16T12:12:36.055Z,2.00
2018-09-16T12:15:04.349Z,2.23
2018-09-16T12:17:32.674Z,3.17
2018-09-16T12:20:00.965Z,2.47
2018-09-16T12:22:29.290Z,2.10
2018-09-16T12:24:57.587Z,2.33
2018-09-16T12:27:26.604Z,2.60
2018-09-16T12:29:54.904Z,2.80
2018-09-16T12:32:23.206Z,2.57
2018-09-16T12:34:51.483Z,2.80
2018-09-16T12:37:19.781Z,2.97
2018-09-16T12:39:48.083Z,2.80
2018-09-16T12:42:16.386Z,2.70
2018-09-16T12:44:44.716Z,2.40
2018-09-16T12:47:13.031Z,2.80
2018-09-16T12:49:41.335Z,2.90
2018-09-16T12:52:09.658Z,2.80
2018-09-16T12:54:37.911Z,2.90
2018-09-16T12:57:06.379Z,2.90
2018-09-16T12:59:34.651Z,2.60
2018-09-16T13:02:02.960Z,2.63
2018-09-16T13:04:31.278Z,2.80
2018-09-16T13:06:59.516Z,2.57
2018-09-16T13:09:27.806Z,2.77
2018-09-16T13:11:56.104Z,2.80
2018-09-16T13:14:24.360Z,2.50
2018-09-16T13:16:52.633Z,3.00
2018-09-16T13:19:21.017Z,2.80
2018-09-16T13:21:49.295Z,2.90
2018-09-16T13:24:17.577Z,2.50
2018-09-16T13:26:45.906Z,2.57
2018-09-16T13:29:14.130Z,2.20
2018-09-16T13:31:42.400Z,2.47
2018-09-16T13:34:10.689Z,2.87
2018-09-16T13:36:38.987Z,2.73
2018-09-16T13:39:08.726Z,2.70
2018-09-16T13:41:37.034Z,2.60
2018-09-16T13:44:05.304Z,2.80
2018-09-16T13:46:33.594Z,2.50
2018-09-16T13:49:01.870Z,2.73
2018-09-16T13:51:30.165Z,2.50
2018-09-16T13:53:58.436Z,2.77
2018-09-16T13:56:27.729Z,2.80
2018-09-16T13:58:56.096Z,2.30
2018-09-16T14:01:24.397Z,2.70
2018-09-16T14:03:52.670Z,2.77
2018-09-16T14:06:21.112Z,2.50
2018-09-16T14:08:49.368Z,2.80
2018-09-16T14:11:17.644Z,2.50
2018-09-16T14:13:45.922Z,2.70
2018-09-16T14:16:14.222Z,2.63
2018-09-16T14:18:42.505Z,2.90
2018-09-16T14:21:10.825Z,3.07
2018-09-16T14:23:39.162Z,3.40
2018-09-16T14:26:07.484Z,3.00
2018-09-16T14:28:35.768Z,3.13
2018-09-16T14:31:04.051Z,2.93
2018-09-16T14:33:32.332Z,2.60
2018-09-16T14:36:00.609Z,2.90
2018-09-16T14:38:28.892Z,3.30
2018-09-16T14:40:57.196Z,3.50
2018-09-16T14:43:25.494Z,3.07
2018-09-16T14:45:53.785Z,2.93
2018-09-16T14:48:22.066Z,2.53
2018-09-16T14:50:50.342Z,2.93
2018-09-16T14:53:18.690Z,2.73
2018-09-16T14:55:47.923Z,2.50
2018-09-16T14:58:16.303Z,2.60
2018-09-16T15:00:44.581Z,2.93
2018-09-16T15:03:12.909Z,2.50
2018-09-16T15:05:41.236Z,2.80
2018-09-16T15:08:13.760Z,3.00
2018-09-16T15:10:42.193Z,2.53
2018-09-16T15:13:10.488Z,2.73
2018-09-16T15:15:38.826Z,2.80
2018-09-16T15:18:07.412Z,2.83
2018-09-16T15:20:35.771Z,2.90
2018-09-16T15:23:04.083Z,2.60
2018-09-16T15:25:32.421Z,2.50
2018-09-16T15:28:00.719Z,2.60
2018-09-16T15:30:28.989Z,2.83
2018-09-16T15:32:57.358Z,2.90
2018-09-16T15:35:25.643Z,3.07
2018-09-16T15:37:53.934Z,2.40
2018-09-16T15:40:22.222Z,2.43
2018-09-16T15:42:50.622Z,2.93
2018-09-16T15:45:18.904Z,3.00
2018-09-16T15:47:47.237Z,2.70
2018-09-16T15:50:15.552Z,4.27
2018-09-16T15:52:43.857Z,2.60
2018-09-16T15:55:12.235Z,2.80
2018-09-16T15:57:40.505Z,2.70
2018-09-16T16:00:08.827Z,3.50
2018-09-16T16:02:37.128Z,2.47
2018-09-16T16:05:05.492Z,3.30
2018-09-16T16:07:33.961Z,3.07
2018-09-16T16:10:02.427Z,2.40
2018-09-16T16:12:30.704Z,2.90
2018-09-16T16:14:59.010Z,2.23
2018-09-16T16:17:27.335Z,2.60
2018-09-16T16:19:55.647Z,3.07
2018-09-16T16:22:24.034Z,3.00
2018-09-16T16:24:52.342Z,2.67
2018-09-16T16:27:20.651Z,2.73
2018-09-16T16:29:48.958Z,2.87
2018-09-16T16:32:17.250Z,2.60
2018-09-16T16:34:45.521Z,2.30
2018-09-16T16:37:13.828Z,2.40
2018-09-16T16:39:42.138Z,2.60
2018-09-16T16:42:10.426Z,2.70
2018-09-16T16:44:38.775Z,2.43
2018-09-16T16:47:07.040Z,2.20
2018-09-16T16:49:35.341Z,2.60
2018-09-16T16:52:03.641Z,2.50
2018-09-16T16:54:31.930Z,2.33
2018-09-16T16:57:00.774Z,2.63
2018-09-16T16:59:29.068Z,2.70
2018-09-16T17:01:57.360Z,2.47
2018-09-16T17:04:25.683Z,2.67
2018-09-16T17:06:54.015Z,2.30
2018-09-16T17:09:22.348Z,2.33
2018-09-16T17:11:50.622Z,2.53
2018-09-16T17:14:18.908Z,2.50
2018-09-16T17:16:47.398Z,2.80
2018-09-16T17:19:15.782Z,2.60
2018-09-16T17:21:44.085Z,2.43
2018-09-16T17:24:12.377Z,2.50
2018-09-16T17:26:40.692Z,2.90
2018-09-16T17:29:09.056Z,2.50
2018-09-16T17:31:37.346Z,2.80
2018-09-16T17:34:05.643Z,2.37
2018-09-16T17:36:33.985Z,2.50
2018-09-16T17:39:02.383Z,2.70
2018-09-16T17:41:30.694Z,2.33
2018-09-16T17:43:59.003Z,2.50
2018-09-16T17:46:27.373Z,2.70
2018-09-16T17:48:55.694Z,2.60
2018-09-16T17:51:23.997Z,2.50
2018-09-16T17:53:52.317Z,2.70
2018-09-16T17:56:20.676Z,3.20
2018-09-16T17:58:48.945Z,3.20
2018-09-16T18:01:17.286Z,3.00
2018-09-16T18:03:45.612Z,3.37
2018-09-16T18:06:13.990Z,2.90
2018-09-16T18:08:44.405Z,3.60
2018-09-16T18:11:14.676Z,3.10
2018-09-16T18:13:43.317Z,3.10
2018-09-16T18:16:12.050Z,3.03
2018-09-16T18:18:40.924Z,3.30
2018-09-16T18:21:09.763Z,3.33
2018-09-16T18:23:38.173Z,3.10
2018-09-16T18:26:06.696Z,3.00
2018-09-16T18:28:35.093Z,3.27
2018-09-16T18:31:03.490Z,3.27
2018-09-16T18:33:31.874Z,3.07
2018-09-16T18:36:00.461Z,3.20
2018-09-16T18:38:28.990Z,3.27
2018-09-16T18:40:57.444Z,3.17
2018-09-16T18:43:25.906Z,3.03
2018-09-16T18:45:54.302Z,3.00
2018-09-16T18:48:22.816Z,3.30
2018-09-16T18:50:51.528Z,2.83
2018-09-16T18:53:19.943Z,3.10
2018-09-16T18:55:48.671Z,3.30
2018-09-16T18:58:17.095Z,3.13
2018-09-16T19:00:45.507Z,3.37
2018-09-16T19:03:13.950Z,3.37
2018-09-16T19:05:42.358Z,3.20
2018-09-16T19:08:10.792Z,3.23
2018-09-16T19:10:39.469Z,3.20
2018-09-16T19:13:07.944Z,3.37
2018-09-16T19:15:36.719Z,3.50
2018-09-16T19:18:05.356Z,3.50
2018-09-16T19:20:34.557Z,3.23
2018-09-16T19:23:03.000Z,3.17
2018-09-16T19:25:31.525Z,3.50
2018-09-16T19:27:59.973Z,3.07
2018-09-16T19:30:28.381Z,3.27
2018-09-16T19:32:56.753Z,3.47
2018-09-16T19:35:25.236Z,3.50
2018-09-16T19:37:54.026Z,3.30
2018-09-16T19:40:22.554Z,3.10
2018-09-16T19:42:51.468Z,3.10
2018-09-16T19:45:20.181Z,3.07
2018-09-16T19:47:48.875Z,3.30
2018-09-16T19:50:17.338Z,3.33
2018-09-16T19:52:45.840Z,3.30
2018-09-16T19:55:14.250Z,3.30
2018-09-16T19:57:42.710Z,3.37
2018-09-16T20:00:11.502Z,3.30
2018-09-16T20:02:40.565Z,3.43
2018-09-16T20:05:08.968Z,3.30
2018-09-16T20:07:37.374Z,3.70
2018-09-16T20:10:05.970Z,3.20
2018-09-16T20:12:34.382Z,3.27
2018-09-16T20:15:02.853Z,3.47
2018-09-16T20:17:31.232Z,3.30
2018-09-16T20:19:59.652Z,3.60
2018-09-16T20:22:27.995Z,2.87
2018-09-16T20:24:56.384Z,3.30
2018-09-16T20:27:24.813Z,3.17
2018-09-16T20:29:53.153Z,2.83
2018-09-16T20:32:21.485Z,3.43
2018-09-16T20:34:49.812Z,3.77
2018-09-16T20:37:18.154Z,3.03
2018-09-16T20:39:46.535Z,3.23
2018-09-16T20:42:14.873Z,3.00
2018-09-16T20:44:43.384Z,3.13
2018-09-16T20:47:11.689Z,3.17
2018-09-16T20:49:40.026Z,3.20
2018-09-16T20:52:08.340Z,3.03
2018-09-16T20:54:36.719Z,3.20
2018-09-16T20:57:05.027Z,3.17
2018-09-16T20:59:33.301Z,3.03
2018-09-16T21:02:01.585Z,2.67
2018-09-16T21:04:30.461Z,3.30
2018-09-16T21:06:58.909Z,3.20
2018-09-16T21:09:27.217Z,3.03
2018-09-16T21:11:55.520Z,3.23
2018-09-16T21:14:23.813Z,3.17
2018-09-16T21:16:52.090Z,4.00
2018-09-16T21:19:20.379Z,5.90
2018-09-16T21:21:48.673Z,4.83
2018-09-16T21:24:17.196Z,4.17
2018-09-16T21:26:45.471Z,3.87
2018-09-16T21:29:13.769Z,3.97
2018-09-16T21:31:42.093Z,3.60
2018-09-16T21:34:10.399Z,3.83
2018-09-16T21:36:38.721Z,3.80
2018-09-16T21:39:09.380Z,3.67
2018-09-16T21:41:37.668Z,3.30
2018-09-16T21:44:06.005Z,3.57
2018-09-16T21:46:34.306Z,3.30
2018-09-16T21:49:02.568Z,3.70
2018-09-16T21:51:30.867Z,3.40
2018-09-16T21:54:00.068Z,3.70
2018-09-16T21:56:28.354Z,3.77
2018-09-16T21:58:56.647Z,3.77
2018-09-16T22:01:24.921Z,3.57
2018-09-16T22:03:53.224Z,3.67
2018-09-16T22:06:22.125Z,4.17
2018-09-16T22:08:50.416Z,3.50
2018-09-16T22:11:18.682Z,3.93
2018-09-16T22:13:47.164Z,3.60
2018-09-16T22:16:15.460Z,3.93
2018-09-16T22:18:43.733Z,3.70
2018-09-16T22:21:12.012Z,3.63
2018-09-16T22:23:40.819Z,4.13
2018-09-16T22:26:09.096Z,3.60
2018-09-16T22:28:37.385Z,3.73
2018-09-16T22:31:05.631Z,3.73
2018-09-16T22:33:33.964Z,3.70
2018-09-16T22:36:02.241Z,4.10
2018-09-16T22:38:30.520Z,3.93
2018-09-16T22:40:58.800Z,3.90
2018-09-16T22:43:27.067Z,3.93
2018-09-16T22:45:55.372Z,4.17
2018-09-16T22:48:23.633Z,4.70
2018-09-16T22:50:51.911Z,4.10
2018-09-16T22:53:20.192Z,3.73
2018-09-16T22:55:48.479Z,4.00
2018-09-16T22:58:17.165Z,4.40
2018-09-16T23:00:45.447Z,4.10
2018-09-16T23:03:13.736Z,4.33
2018-09-16T23:05:41.987Z,4.40
2018-09-16T23:08:10.300Z,4.10
2018-09-16T23:10:38.586Z,4.10
2018-09-16T23:13:06.913Z,3.93
2018-09-16T23:15:35.175Z,3.80
2018-09-16T23:18:03.448Z,4.20
2018-09-16T23:20:32.024Z,4.17
2018-09-16T23:23:00.398Z,3.60
2018-09-16T23:25:28.688Z,4.00
2018-09-16T23:27:56.973Z,4.60
2018-09-16T23:30:25.244Z,4.20
2018-09-16T23:32:53.572Z,3.90
2018-09-16T23:35:21.878Z,4.53
2018-09-16T23:37:50.156Z,4.30
2018-09-16T23:40:18.435Z,4.57
2018-09-16T23:42:46.760Z,4.47
2018-09-16T23:45:15.074Z,4.90
2018-09-16T23:47:43.303Z,4.37
2018-09-16T23:50:11.564Z,4.50
2018-09-16T23:52:39.840Z,4.00
2018-09-16T23:55:08.133Z,4.30
2018-09-16T23:57:36.408Z,4.20
